createdAt,value
2022-09-15T00:00:01.182Z,1.85
2022-09-15T00:02:28.193Z,1.83
2022-09-15T00:04:55.094Z,2.40
2022-09-15T00:07:22.145Z,2.35
2022-09-15T00:09:48.618Z,3.13
2022-09-15T00:12:15.305Z,1.88
2022-09-15T00:14:42.013Z,2.40
2022-09-15T00:17:08.897Z,2.63
2022-09-15T00:19:35.718Z,3.20
2022-09-15T00:22:02.306Z,2.00
2022-09-15T00:24:29.092Z,2.28
2022-09-15T00:26:56.761Z,2.25
2022-09-15T00:29:23.669Z,3.05
2022-09-15T00:31:50.551Z,1.58
2022-09-15T00:34:17.515Z,1.67
2022-09-15T00:36:44.508Z,2.47
2022-09-15T00:39:12.031Z,2.67
2022-09-15T00:41:40.425Z,3.85
2022-09-15T00:44:16.043Z,2.10
2022-09-15T00:46:54.823Z,1.35
2022-09-15T00:49:39.070Z,2.00
2022-09-15T00:52:25.230Z,1.90
2022-09-15T00:55:09.204Z,2.03
2022-09-15T00:57:39.282Z,1.50
2022-09-15T01:00:10.506Z,2.72
2022-09-15T01:02:38.902Z,1.90
2022-09-15T01:05:09.188Z,1.93
2022-09-15T01:07:41.863Z,2.03
2022-09-15T01:10:16.158Z,1.92
2022-09-15T01:12:43.069Z,2.35
2022-09-15T01:15:09.963Z,1.58
2022-09-15T01:17:54.940Z,2.33
2022-09-15T01:20:43.235Z,1.98
2022-09-15T01:23:10.183Z,3.00
2022-09-15T01:25:43.281Z,2.55
2022-09-15T01:28:34.626Z,2.05
2022-09-15T01:31:12.182Z,1.50
2022-09-15T01:33:57.602Z,1.58
2022-09-15T01:37:06.268Z,1.77
2022-09-15T01:39:39.337Z,2.33
2022-09-15T01:42:10.254Z,1.70
2022-09-15T01:44:52.093Z,1.73
2022-09-15T01:47:20.992Z,1.92
2022-09-15T01:50:12.836Z,1.80
2022-09-15T01:52:46.995Z,2.25
2022-09-15T01:55:22.848Z,1.50
2022-09-15T01:57:50.595Z,1.95
2022-09-15T02:00:17.458Z,1.95
2022-09-15T02:03:04.250Z,1.90
2022-09-15T02:05:40.043Z,1.95
2022-09-15T02:08:38.234Z,2.17
2022-09-15T02:11:16.854Z,2.00
2022-09-15T02:14:18.523Z,2.10
2022-09-15T02:16:49.941Z,2.00
2022-09-15T02:19:31.349Z,2.65
2022-09-15T02:22:24.169Z,1.98
2022-09-15T02:24:58.108Z,3.38
2022-09-15T02:27:28.567Z,2.00
2022-09-15T02:30:03.125Z,2.15
2022-09-15T02:32:31.633Z,3.03
2022-09-15T02:35:00.581Z,1.87
2022-09-15T02:37:27.721Z,2.50
2022-09-15T02:40:00.401Z,2.05
2022-09-15T02:42:29.470Z,1.80
2022-09-15T02:44:57.039Z,1.52
2022-09-15T02:47:24.782Z,2.22
2022-09-15T02:49:51.696Z,3.00
2022-09-15T02:52:18.249Z,2.28
2022-09-15T02:54:44.811Z,2.03
2022-09-15T02:57:11.754Z,1.85
2022-09-15T02:59:57.129Z,3.65
2022-09-15T03:02:24.907Z,2.25
2022-09-15T03:04:51.702Z,2.33
2022-09-15T03:07:18.826Z,2.60
2022-09-15T03:09:46.124Z,1.67
2022-09-15T03:12:13.308Z,2.10
2022-09-15T03:14:40.221Z,1.90
2022-09-15T03:17:06.818Z,1.77
2022-09-15T03:19:33.439Z,1.88
2022-09-15T03:22:00.054Z,2.40
2022-09-15T03:24:26.796Z,2.30
2022-09-15T03:26:53.516Z,2.00
2022-09-15T03:29:20.174Z,2.17
2022-09-15T03:31:47.176Z,1.77
2022-09-15T03:34:13.846Z,1.95
2022-09-15T03:36:41.224Z,2.08
2022-09-15T03:39:08.088Z,2.40
2022-09-15T03:41:34.855Z,2.30
2022-09-15T03:44:01.639Z,3.38
2022-09-15T03:46:29.498Z,2.28
2022-09-15T03:48:57.002Z,2.92
2022-09-15T03:51:24.127Z,4.90
2022-09-15T03:53:50.875Z,4.90
2022-09-15T03:56:23.565Z,3.47
2022-09-15T03:58:51.161Z,4.20
2022-09-15T04:01:21.326Z,3.60
2022-09-15T04:03:51.155Z,3.28
2022-09-15T04:06:20.940Z,3.20
2022-09-15T04:08:48.762Z,2.80
2022-09-15T04:11:17.029Z,3.88
2022-09-15T04:13:44.160Z,3.77
2022-09-15T04:16:16.683Z,3.10
2022-09-15T04:18:43.966Z,3.15
2022-09-15T04:21:13.553Z,3.10
2022-09-15T04:23:41.239Z,3.38
2022-09-15T04:26:14.173Z,4.40
2022-09-15T04:28:40.908Z,3.90
2022-09-15T04:31:09.944Z,4.10
2022-09-15T04:36:12.309Z,3.20
2022-09-15T04:38:39.139Z,3.70
2022-09-15T04:41:06.371Z,3.17
2022-09-15T04:43:33.749Z,3.30
2022-09-15T04:46:00.887Z,4.10
2022-09-15T04:48:27.760Z,3.20
2022-09-15T04:50:54.786Z,3.83
2022-09-15T04:53:21.671Z,4.72
2022-09-15T04:55:48.300Z,4.38
2022-09-15T04:58:14.942Z,3.45
2022-09-15T05:00:45.823Z,2.78
2022-09-15T05:03:14.325Z,4.32
2022-09-15T05:05:41.664Z,3.03
2022-09-15T05:08:08.348Z,3.13
2022-09-15T05:10:35.119Z,5.40
2022-09-15T05:13:01.697Z,3.58
2022-09-15T05:15:28.339Z,3.30
2022-09-15T05:17:55.026Z,3.50
2022-09-15T05:20:21.664Z,4.18
2022-09-15T05:22:48.239Z,3.30
2022-09-15T05:25:15.664Z,3.65
2022-09-15T05:27:43.014Z,3.45
2022-09-15T05:30:35.801Z,3.78
2022-09-15T05:32:57.745Z,3.70
2022-09-15T05:35:24.759Z,3.85
2022-09-15T05:37:51.293Z,4.10
2022-09-15T05:40:20.887Z,4.10
2022-09-15T05:42:47.706Z,4.28
2022-09-15T05:45:14.606Z,3.72
2022-09-15T05:47:41.204Z,3.70
2022-09-15T05:50:08.081Z,3.53
2022-09-15T05:52:35.919Z,3.95
2022-09-15T05:55:02.691Z,4.35
2022-09-15T05:57:29.366Z,3.72
2022-09-15T05:59:56.052Z,4.30
2022-09-15T06:02:22.878Z,3.90
2022-09-15T06:04:49.726Z,4.25
2022-09-15T06:07:16.833Z,4.57
2022-09-15T06:09:44.008Z,3.65
2022-09-15T06:12:10.644Z,4.35
2022-09-15T06:14:37.388Z,3.67
2022-09-15T06:17:04.050Z,4.18
2022-09-15T06:19:30.588Z,4.10
2022-09-15T06:21:57.163Z,4.13
2022-09-15T06:24:24.357Z,4.18
2022-09-15T06:26:51.100Z,3.60
2022-09-15T06:29:17.801Z,5.10
2022-09-15T06:31:44.441Z,4.15
2022-09-15T06:34:11.947Z,4.15
2022-09-15T06:36:39.098Z,4.22
2022-09-15T06:39:06.012Z,4.65
2022-09-15T06:41:58.481Z,4.70
2022-09-15T06:44:20.288Z,4.40
2022-09-15T06:46:47.519Z,3.88
2022-09-15T06:49:14.182Z,4.35
2022-09-15T06:51:41.084Z,4.13
2022-09-15T06:54:07.967Z,5.35
2022-09-15T06:56:38.041Z,4.13
2022-09-15T06:59:05.797Z,5.13
2022-09-15T07:01:32.929Z,6.38
2022-09-15T07:04:01.333Z,4.80
2022-09-15T07:06:29.966Z,4.00
2022-09-15T07:08:58.467Z,4.80
2022-09-15T07:11:26.237Z,4.88
2022-09-15T07:13:53.269Z,3.95
2022-09-15T07:16:21.353Z,4.30
2022-09-15T07:18:49.033Z,4.28
2022-09-15T07:21:18.571Z,5.45
2022-09-15T07:23:45.978Z,4.65
2022-09-15T07:26:19.934Z,4.10
2022-09-15T07:28:53.120Z,3.75
2022-09-15T07:31:22.114Z,4.45
2022-09-15T07:33:49.191Z,4.20
2022-09-15T07:36:16.255Z,4.05
2022-09-15T07:38:45.246Z,3.75
2022-09-15T07:41:14.665Z,4.20
2022-09-15T07:43:46.314Z,4.28
2022-09-15T07:46:13.056Z,4.18
2022-09-15T07:48:39.650Z,4.55
2022-09-15T07:51:06.525Z,4.35
2022-09-15T07:53:33.173Z,5.20
2022-09-15T07:55:59.788Z,3.38
2022-09-15T07:58:26.852Z,3.83
2022-09-15T08:00:53.656Z,3.60
2022-09-15T08:03:20.681Z,4.18
2022-09-15T08:05:47.530Z,3.88
2022-09-15T08:08:14.261Z,4.25
2022-09-15T08:10:41.471Z,4.00
2022-09-15T08:13:08.819Z,4.05
2022-09-15T08:15:37.458Z,3.47
2022-09-15T08:18:05.274Z,3.97
2022-09-15T08:20:32.602Z,3.13
2022-09-15T08:22:59.277Z,3.72
2022-09-15T08:25:26.188Z,3.60
2022-09-15T08:27:54.274Z,4.60
2022-09-15T08:30:21.971Z,5.10
2022-09-15T08:32:49.471Z,3.80
2022-09-15T08:35:17.245Z,3.70
2022-09-15T08:37:43.807Z,3.65
2022-09-15T08:40:18.038Z,4.32
2022-09-15T08:42:48.628Z,3.85
2022-09-15T08:45:25.517Z,3.78
2022-09-15T08:48:00.158Z,4.57
2022-09-15T08:50:35.924Z,3.30
2022-09-15T08:53:09.798Z,3.78
2022-09-15T08:55:56.169Z,3.55
2022-09-15T08:58:31.265Z,3.55
2022-09-15T09:01:22.476Z,3.75
2022-09-15T09:03:55.252Z,3.65
2022-09-15T09:06:27.962Z,4.22
2022-09-15T09:09:19.589Z,3.90
2022-09-15T09:11:48.945Z,4.78
2022-09-15T09:14:35.977Z,3.33
2022-09-15T09:17:34.215Z,3.63
2022-09-15T09:20:16.331Z,3.73
2022-09-15T09:22:46.879Z,5.38
2022-09-15T09:25:27.120Z,3.08
2022-09-15T09:27:58.073Z,3.47
2022-09-15T09:30:27.703Z,4.63
2022-09-15T09:33:31.139Z,3.78
2022-09-15T09:36:00.064Z,4.03
2022-09-15T09:38:31.897Z,5.90
2022-09-15T09:41:02.281Z,3.65
2022-09-15T09:43:30.169Z,4.22
2022-09-15T09:45:57.133Z,5.22
2022-09-15T09:48:26.262Z,5.50
2022-09-15T09:53:31.263Z,5.20
2022-09-15T09:56:18.079Z,5.18
2022-09-15T09:58:45.388Z,4.28
2022-09-15T10:01:17.857Z,5.22
2022-09-15T10:03:48.259Z,5.65
2022-09-15T10:06:22.617Z,3.17
2022-09-15T10:08:58.593Z,4.68
2022-09-15T10:11:43.273Z,5.03
2022-09-15T10:14:20.173Z,4.10
2022-09-15T10:17:40.836Z,4.55
2022-09-15T10:20:21.240Z,4.00
2022-09-15T10:22:48.546Z,4.45
2022-09-15T10:25:20.994Z,4.78
2022-09-15T10:28:09.726Z,4.93
2022-09-15T10:30:37.454Z,4.38
2022-09-15T10:33:22.989Z,4.72
2022-09-15T10:35:50.614Z,3.35
2022-09-15T10:38:26.417Z,3.45
2022-09-15T10:41:01.078Z,4.45
2022-09-15T10:43:33.751Z,4.05
2022-09-15T10:46:05.856Z,4.13
2022-09-15T10:48:46.723Z,4.05
2022-09-15T10:51:28.139Z,4.28
2022-09-15T10:54:25.859Z,4.18
2022-09-15T10:57:01.346Z,4.75
2022-09-15T10:59:43.681Z,6.80
2022-09-15T11:02:28.949Z,4.32
2022-09-15T11:05:22.767Z,4.00
2022-09-15T11:08:01.754Z,4.70
2022-09-15T11:10:35.435Z,3.80
2022-09-15T11:13:36.497Z,3.40
2022-09-15T11:16:41.474Z,4.15
2022-09-15T11:19:26.913Z,3.75
2022-09-15T11:21:59.815Z,4.40
2022-09-15T11:24:30.410Z,4.10
2022-09-15T11:27:15.373Z,2.95
2022-09-15T11:29:42.442Z,2.90
2022-09-15T11:32:19.541Z,4.20
2022-09-15T11:34:53.703Z,3.70
2022-09-15T11:37:40.283Z,6.60
2022-09-15T11:40:30.323Z,3.08
2022-09-15T11:43:09.171Z,4.55
2022-09-15T11:45:42.334Z,4.00
2022-09-15T11:48:23.499Z,2.92
2022-09-15T11:50:54.788Z,3.55
2022-09-15T11:53:53.359Z,3.45
2022-09-15T11:56:33.809Z,3.90
2022-09-15T11:59:22.229Z,3.13
2022-09-15T12:02:20.172Z,4.07
2022-09-15T12:04:57.887Z,2.65
2022-09-15T12:07:29.069Z,3.45
2022-09-15T12:10:04.235Z,3.00
2022-09-15T12:12:32.725Z,3.83
2022-09-15T12:14:59.507Z,4.33
2022-09-15T12:17:41.697Z,3.72
2022-09-15T12:20:17.769Z,3.53
2022-09-15T12:22:57.126Z,5.45
2022-09-15T12:25:41.129Z,3.83
2022-09-15T12:28:22.958Z,3.22
2022-09-15T12:31:15.437Z,4.82
2022-09-15T12:33:53.493Z,3.55
2022-09-15T12:36:43.198Z,2.88
2022-09-15T12:39:18.867Z,3.08
2022-09-15T12:42:22.641Z,3.38
2022-09-15T12:45:04.465Z,4.30
2022-09-15T12:47:54.730Z,3.85
2022-09-15T12:50:38.137Z,2.97
2022-09-15T12:53:20.215Z,2.08
2022-09-15T12:56:00.959Z,4.90
2022-09-15T12:58:40.166Z,3.20
2022-09-15T13:01:18.951Z,2.38
2022-09-15T13:06:25.866Z,3.08
2022-09-15T13:09:05.653Z,2.60
2022-09-15T13:11:37.410Z,3.00
2022-09-15T13:14:06.591Z,2.45
2022-09-15T13:16:46.706Z,3.22
2022-09-15T13:19:41.228Z,2.63
2022-09-15T13:22:20.404Z,3.45
2022-09-15T13:24:47.104Z,3.42
2022-09-15T13:27:17.460Z,2.50
2022-09-15T13:30:00.100Z,2.97
2022-09-15T13:32:32.569Z,3.10
2022-09-15T13:35:20.907Z,2.83
2022-09-15T13:38:15.270Z,2.47
2022-09-15T13:41:08.602Z,3.42
2022-09-15T13:43:50.561Z,2.53
2022-09-15T13:46:45.081Z,4.57
2022-09-15T13:49:32.805Z,2.38
2022-09-15T13:52:13.761Z,2.85
2022-09-15T13:55:12.071Z,1.83
2022-09-15T14:00:34.964Z,2.22
2022-09-15T14:03:17.394Z,2.03
2022-09-15T14:05:45.668Z,2.13
2022-09-15T14:08:19.744Z,2.90
2022-09-15T14:10:59.468Z,4.63
2022-09-15T14:13:28.772Z,2.20
2022-09-15T14:16:03.017Z,1.80
2022-09-15T14:18:31.474Z,3.70
2022-09-15T14:21:04.346Z,2.60
2022-09-15T14:23:32.757Z,1.73
2022-09-15T14:26:01.349Z,3.17
2022-09-15T14:28:34.046Z,3.00
2022-09-15T14:31:02.158Z,1.75
2022-09-15T14:33:38.228Z,2.30
2022-09-15T14:36:22.621Z,2.50
2022-09-15T14:39:21.869Z,1.70
2022-09-15T14:41:50.134Z,2.42
2022-09-15T14:47:27.924Z,1.35
2022-09-15T14:50:17.442Z,2.05
2022-09-15T14:52:48.382Z,1.90
2022-09-15T14:55:23.193Z,1.63
2022-09-15T14:58:02.079Z,1.95
2022-09-15T15:00:39.913Z,2.60
2022-09-15T15:03:19.472Z,2.42
2022-09-15T15:06:02.371Z,2.75
2022-09-15T15:08:44.559Z,1.73
2022-09-15T15:11:13.566Z,3.00
2022-09-15T15:13:42.668Z,1.90
2022-09-15T15:18:41.382Z,1.95
2022-09-15T15:21:31.295Z,1.05
2022-09-15T15:23:58.135Z,1.70
2022-09-15T15:26:38.731Z,1.40
2022-09-15T15:29:09.299Z,3.10
2022-09-15T15:31:40.122Z,2.05
2022-09-15T15:34:24.482Z,2.08
2022-09-15T15:36:51.193Z,1.42
2022-09-15T15:39:27.092Z,2.47
2022-09-15T15:42:05.921Z,2.05
2022-09-15T15:44:32.827Z,1.33
2022-09-15T15:47:22.661Z,1.80
2022-09-15T15:50:12.312Z,1.70
2022-09-15T15:52:39.815Z,1.50
2022-09-15T15:55:07.224Z,2.50
2022-09-15T15:57:39.940Z,2.15
2022-09-15T16:00:24.535Z,1.67
2022-09-15T16:02:52.304Z,1.77
2022-09-15T16:05:26.571Z,2.35
2022-09-15T16:07:56.134Z,1.63
2022-09-15T16:10:28.113Z,2.60
2022-09-15T16:12:54.782Z,1.40
2022-09-15T16:15:22.092Z,1.60
2022-09-15T16:17:49.719Z,1.55
2022-09-15T16:20:17.056Z,3.65
2022-09-15T16:22:44.044Z,2.20
2022-09-15T16:25:17.429Z,2.63
2022-09-15T16:27:44.312Z,1.55
2022-09-15T16:30:13.893Z,2.65
2022-09-15T16:32:41.283Z,1.52
2022-09-15T16:35:35.097Z,1.90
2022-09-15T16:38:02.235Z,1.40
2022-09-15T16:40:29.353Z,1.58
2022-09-15T16:42:56.338Z,2.80
2022-09-15T16:45:39.737Z,1.60
2022-09-15T16:48:07.899Z,1.67
2022-09-15T16:50:35.145Z,1.48
2022-09-15T16:53:02.202Z,2.75
2022-09-15T16:55:33.503Z,2.55
2022-09-15T16:58:00.263Z,2.10
2022-09-15T17:00:31.927Z,2.35
2022-09-15T17:02:58.807Z,1.65
2022-09-15T17:05:37.729Z,1.50
2022-09-15T17:08:05.720Z,1.75
2022-09-15T17:10:33.495Z,1.15
2022-09-15T17:13:00.977Z,2.50
2022-09-15T17:15:29.993Z,2.60
2022-09-15T17:17:57.572Z,2.60
2022-09-15T17:20:25.688Z,2.55
2022-09-15T17:22:53.524Z,1.63
2022-09-15T17:25:31.149Z,1.10
2022-09-15T17:27:58.876Z,2.75
2022-09-15T17:30:28.363Z,1.30
2022-09-15T17:33:11.865Z,2.08
2022-09-15T17:35:38.760Z,2.13
2022-09-15T17:38:06.549Z,2.83
2022-09-15T17:40:34.739Z,2.80
2022-09-15T17:43:01.804Z,1.67
2022-09-15T17:45:32.045Z,1.88
2022-09-15T17:47:59.574Z,2.60
2022-09-15T17:50:28.697Z,2.45
2022-09-15T17:55:30.973Z,1.77
2022-09-15T17:57:59.930Z,1.40
2022-09-15T18:00:30.186Z,1.67
2022-09-15T18:03:00.628Z,1.33
2022-09-15T18:05:32.978Z,1.70
2022-09-15T18:08:03.230Z,2.03
2022-09-15T18:10:32.708Z,1.55
2022-09-15T18:13:00.118Z,1.83
2022-09-15T18:15:29.865Z,2.17
2022-09-15T18:17:59.465Z,1.45
2022-09-15T18:20:28.973Z,1.85
2022-09-15T18:22:56.869Z,1.85
2022-09-15T18:25:32.462Z,3.45
2022-09-15T18:28:00.857Z,2.97
2022-09-15T18:30:31.034Z,1.53
2022-09-15T18:32:58.782Z,1.35
2022-09-15T18:35:26.458Z,1.90
2022-09-15T18:37:58.532Z,1.55
2022-09-15T18:40:26.643Z,2.97
2022-09-15T18:42:54.298Z,1.40
2022-09-15T18:45:20.928Z,3.05
2022-09-15T18:47:49.187Z,1.40
2022-09-15T18:50:17.942Z,3.08
2022-09-15T18:52:45.057Z,1.63
2022-09-15T18:55:15.276Z,1.48
2022-09-15T18:57:42.550Z,2.42
2022-09-15T19:00:19.488Z,2.05
2022-09-15T19:02:47.241Z,2.33
2022-09-15T19:05:15.678Z,1.25
2022-09-15T19:07:43.969Z,1.40
2022-09-15T19:10:12.506Z,1.87
2022-09-15T19:12:39.514Z,2.40
2022-09-15T19:15:10.858Z,2.05
2022-09-15T19:17:39.244Z,1.48
2022-09-15T19:20:08.377Z,1.60
2022-09-15T19:22:35.861Z,2.72
2022-09-15T19:25:04.415Z,2.42
2022-09-15T19:27:31.474Z,4.03
2022-09-15T19:29:58.277Z,2.67
2022-09-15T19:32:25.008Z,2.08
2022-09-15T19:34:51.900Z,4.18
2022-09-15T19:37:20.906Z,2.70
2022-09-15T19:39:48.330Z,2.58
2022-09-15T19:44:48.003Z,2.42
2022-09-15T19:47:15.370Z,2.08
2022-09-15T19:49:41.989Z,2.47
2022-09-15T19:52:08.610Z,3.10
2022-09-15T19:54:36.033Z,1.92
2022-09-15T19:57:02.914Z,2.17
2022-09-15T19:59:31.580Z,1.70
2022-09-15T20:04:26.830Z,1.52
2022-09-15T20:06:53.457Z,1.42
2022-09-15T20:09:20.378Z,2.47
2022-09-15T20:11:47.142Z,1.75
2022-09-15T20:14:13.994Z,2.63
2022-09-15T20:16:41.179Z,2.25
2022-09-15T20:19:08.086Z,2.35
2022-09-15T20:21:49.816Z,3.45
2022-09-15T20:24:17.343Z,1.60
2022-09-15T20:26:43.935Z,2.92
2022-09-15T20:29:10.800Z,2.28
2022-09-15T20:31:37.597Z,2.55
2022-09-15T20:34:04.383Z,3.30
2022-09-15T20:36:33.459Z,2.10
2022-09-15T20:39:03.396Z,3.15
2022-09-15T20:41:34.092Z,1.40
2022-09-15T20:44:01.231Z,3.42
2022-09-15T20:46:29.439Z,2.20
2022-09-15T20:48:56.064Z,1.33
2022-09-15T20:51:25.573Z,2.33
2022-09-15T20:53:54.829Z,1.42
2022-09-15T20:56:25.335Z,2.38
2022-09-15T20:58:58.532Z,2.15
2022-09-15T21:01:27.910Z,1.60
2022-09-15T21:03:55.496Z,2.78
2022-09-15T21:06:25.646Z,2.88
2022-09-15T21:08:53.481Z,1.80
2022-09-15T21:11:21.334Z,1.63
2022-09-15T21:13:49.375Z,1.48
2022-09-15T21:16:20.485Z,1.17
2022-09-15T21:18:48.291Z,2.58
2022-09-15T21:21:20.307Z,1.42
2022-09-15T21:23:54.791Z,1.20
2022-09-15T21:26:23.855Z,1.45
2022-09-15T21:28:50.875Z,1.25
2022-09-15T21:31:20.183Z,1.35
2022-09-15T21:33:47.692Z,2.40
2022-09-15T21:36:22.287Z,2.08
2022-09-15T21:38:51.397Z,0.85
2022-09-15T21:43:48.823Z,1.70
2022-09-15T21:46:19.994Z,1.20
2022-09-15T21:48:48.670Z,1.30
2022-09-15T21:51:24.298Z,1.88
2022-09-15T21:53:53.108Z,1.20
2022-09-15T21:56:21.108Z,2.97
2022-09-15T21:58:48.398Z,1.25
2022-09-15T22:01:19.632Z,1.30
2022-09-15T22:04:03.915Z,1.98
2022-09-15T22:06:33.502Z,2.08
2022-09-15T22:09:05.957Z,3.38
2022-09-15T22:11:32.976Z,1.55
2022-09-15T22:14:01.857Z,1.73
2022-09-15T22:16:29.063Z,1.08
2022-09-15T22:18:56.444Z,2.28
2022-09-15T22:21:25.764Z,1.42
2022-09-15T22:23:55.472Z,1.15
2022-09-15T22:26:28.274Z,1.27
2022-09-15T22:28:55.888Z,2.58
2022-09-15T22:31:24.426Z,1.25
2022-09-15T22:33:51.668Z,1.08
2022-09-15T22:36:28.827Z,1.88
2022-09-15T22:38:57.096Z,1.33
2022-09-15T22:41:27.306Z,1.08
2022-09-15T22:43:54.002Z,2.60
2022-09-15T22:46:20.977Z,1.10
2022-09-15T22:48:48.051Z,1.70
2022-09-15T22:51:16.256Z,1.70
2022-09-15T22:53:43.046Z,1.43
2022-09-15T22:56:14.536Z,1.35
2022-09-15T22:58:46.767Z,1.35
2022-09-15T23:01:19.250Z,2.58
2022-09-15T23:03:54.147Z,1.13
2022-09-15T23:06:21.357Z,1.67
2022-09-15T23:08:59.682Z,0.90
2022-09-15T23:11:28.326Z,1.10
2022-09-15T23:13:56.433Z,2.05
2022-09-15T23:16:24.383Z,1.00
2022-09-15T23:18:52.120Z,1.48
2022-09-15T23:21:19.621Z,0.95
2022-09-15T23:23:48.962Z,0.82
2022-09-15T23:26:18.911Z,1.63
2022-09-15T23:28:45.666Z,2.28
2022-09-15T23:31:13.144Z,4.07
2022-09-15T23:33:40.171Z,1.38
2022-09-15T23:36:10.734Z,1.75
2022-09-15T23:38:42.179Z,1.63
2022-09-15T23:41:09.854Z,2.95
2022-09-15T23:43:36.621Z,1.05
2022-09-15T23:46:04.310Z,2.60
2022-09-15T23:48:34.455Z,1.25
2022-09-15T23:51:01.421Z,1.38
2022-09-15T23:53:28.442Z,2.50
2022-09-15T23:55:55.224Z,1.05
2022-09-15T23:58:21.888Z,1.40
